Time;durP1;ratioP1;P1;durP2;ratioP2;P2;SDS_P1;SDS_P2;PMS_P1;PMS_P2;Temp;Humidity;BMP_temperature;BMP_pressure;BME280_temperature;BME280_humidity;BME280_pressure;Samples;Min_cycle;Max_cycle;Signal;HPM_P1;HPM_P2
2022/08/08 00:02:36;;;;;;;0.80;0.15;;;22.30;86.40;;;;;;4948946;29;20031;-80
2022/08/08 00:05:10;;;;;;;1.00;0.10;;;22.50;84.20;;;;;;4937951;29;20042;-78
2022/08/08 00:07:46;;;;;;;3.45;0.30;;;22.70;84.00;;;;;;4951274;28;20065;-77
2022/08/08 00:10:46;;;;;;;2.65;0.10;;;22.70;83.40;;;;;;4950159;28;20035;-78
2022/08/08 00:13:22;;;;;;;1.38;0.10;;;22.60;83.80;;;;;;4916381;28;20509;-77
2022/08/08 00:16:19;;;;;;;2.13;0.28;;;22.90;83.30;;;;;;4951530;29;20058;-80
2022/08/08 00:18:53;;;;;;;;;;;22.80;82.60;;;;;;4939094;28;20094;-78
2022/08/08 00:21:26;;;;;;;0.95;0.10;;;23.00;81.70;;;;;;4951770;29;19918;-80
2022/08/08 00:24:10;;;;;;;0.55;0.15;;;23.30;81.20;;;;;;4937772;28;20036;-78
2022/08/08 00:26:45;;;;;;;0.65;0.15;;;23.10;81.50;;;;;;4943929;28;20031;-77
2022/08/08 00:29:15;;;;;;;2.90;0.13;;;23.20;82.00;;;;;;4949067;28;20503;-78
2022/08/08 00:31:49;;;;;;;0.00;0.00;;;23.60;81.90;;;;;;4948808;28;20046;-78
2022/08/08 00:37:57;;;;;;;0.52;0.10;;;24.40;80.90;;;;;;4953637;29;20058;-77
2022/08/08 00:40:24;;;;;;;0.32;0.10;;;24.60;80.20;;;;;;4937678;29;20039;-76
2022/08/08 00:43:00;;;;;;;0.70;0.15;;;25.00;77.90;;;;;;4950791;29;20064;-76
2022/08/08 00:45:40;;;;;;;1.23;0.10;;;24.70;78.90;;;;;;4951515;29;20035;-78
2022/08/08 00:48:33;;;;;;;1.83;0.20;;;25.00;78.50;;;;;;4948902;28;20383;-76
2022/08/08 00:51:34;;;;;;;1.38;0.10;;;24.90;77.70;;;;;;4951338;29;20124;-76
2022/08/08 00:54:32;;;;;;;0.90;0.20;;;25.40;78.10;;;;;;4940028;28;20035;-77
2022/08/08 00:57:32;;;;;;;0.50;0.15;;;25.40;77.90;;;;;;4945667;28;20114;-77
2022/08/08 01:00:02;;;;;;;2.90;0.13;;;25.60;77.30;;;;;;4948443;28;20031;-77
2022/08/08 01:02:50;;;;;;;0.30;0.10;;;25.90;77.50;;;;;;4948876;28;20035;-78
2022/08/08 01:05:36;;;;;;;1.15;0.10;;;25.90;76.90;;;;;;4952148;28;20042;-80
2022/08/08 01:08:27;;;;;;;3.38;0.10;;;26.10;75.80;;;;;;4937472;29;20463;-77
2022/08/08 01:11:26;;;;;;;1.20;0.20;;;25.70;76.10;;;;;;4933093;29;20099;-78
2022/08/08 01:14:21;;;;;;;0.17;0.05;;;25.90;75.80;;;;;;4941914;29;20039;-78
2022/08/08 01:17:04;;;;;;;0.50;0.10;;;25.70;75.30;;;;;;4952735;29;20343;-79
2022/08/08 01:19:31;;;;;;;0.38;0.10;;;25.80;75.80;;;;;;4944737;29;20066;-79
2022/08/08 01:22:19;;;;;;;0.45;0.13;;;25.80;75.90;;;;;;4950935;28;20031;-78
2022/08/08 01:25:04;;;;;;;0.85;0.10;;;26.00;76.30;;;;;;4943878;29;20027;-79
2022/08/08 01:27:56;;;;;;;0.47;0.10;;;26.10;75.20;;;;;;4935725;28;20032;-76
2022/08/08 01:30:44;;;;;;;0.80;0.15;;;26.30;75.70;;;;;;4941614;28;20389;-77
2022/08/08 01:33:39;;;;;;;0.80;0.03;;;26.40;76.90;;;;;;4938756;29;20086;-77
2022/08/08 01:36:18;;;;;;;1.77;0.20;;;26.50;75.70;;;;;;4946069;28;20166;-77
2022/08/08 01:38:54;;;;;;;0.32;0.10;;;26.60;74.70;;;;;;4934979;29;20097;-76
2022/08/08 01:41:52;;;;;;;1.27;0.50;;;26.70;74.70;;;;;;4954718;28;20450;-76
2022/08/08 01:44:53;;;;;;;1.08;0.10;;;26.50;75.20;;;;;;4921611;29;20043;-79
2022/08/08 01:47:48;;;;;;;0.98;0.20;;;26.80;73.70;;;;;;4947826;28;20054;-80
2022/08/08 01:50:39;;;;;;;3.03;0.20;;;26.50;73.10;;;;;;4933357;29;20028;-79
2022/08/08 01:53:32;;;;;;;0.40;0.03;;;26.30;74.00;;;;;;4946000;28;20069;-77
2022/08/08 01:56:17;;;;;;;0.40;0.10;;;26.10;76.00;;;;;;4949964;28;20039;-76
2022/08/08 01:59:04;;;;;;;0.70;0.40;;;26.40;74.60;;;;;;4946364;29;20036;-77
2022/08/08 02:01:43;;;;;;;0.10;0.00;;;26.20;74.00;;;;;;4945395;28;20277;-80
2022/08/08 02:04:20;;;;;;;0.43;0.10;;;26.00;75.10;;;;;;4947121;28;20031;-78
2022/08/08 02:07:02;;;;;;;0.20;0.10;;;25.40;74.30;;;;;;4950300;28;20540;-78
2022/08/08 02:10:00;;;;;;;0.93;0.10;;;25.50;75.30;;;;;;4951236;29;20382;-79
2022/08/08 02:12:59;;;;;;;0.75;0.10;;;25.50;76.10;;;;;;4950365;29;20097;-77
2022/08/08 02:15:51;;;;;;;0.50;0.10;;;26.10;75.00;;;;;;4939076;28;20117;-78
2022/08/08 02:18:23;;;;;;;0.30;0.00;;;26.20;74.80;;;;;;4946378;28;20043;-78
2022/08/08 02:24:27;;;;;;;0.88;0.10;;;25.90;74.30;;;;;;4944411;29;20038;-77
2022/08/08 02:27:12;;;;;;;2.22;0.17;;;26.10;74.60;;;;;;4949674;29;20043;-78
2022/08/08 02:30:09;;;;;;;1.30;0.17;;;25.80;74.80;;;;;;4951242;29;20035;-80
2022/08/08 02:32:46;;;;;;;0.45;0.00;;;25.20;75.20;;;;;;4951645;28;20043;-78
2022/08/08 02:35:22;;;;;;;0.03;0.03;;;24.90;76.70;;;;;;4945748;28;20043;-78
2022/08/08 02:38:22;;;;;;;0.30;0.10;;;25.00;75.40;;;;;;4954745;29;20163;-79
2022/08/08 02:41:09;;;;;;;0.15;0.00;;;25.20;77.30;;;;;;4953057;29;20035;-79
2022/08/08 02:43:52;;;;;;;1.65;0.10;;;25.40;75.80;;;;;;4897601;29;20044;-77
2022/08/08 02:46:34;;;;;;;0.68;0.10;;;25.20;74.70;;;;;;4936375;28;20155;-78
2022/08/08 02:49:34;;;;;;;0.65;0.10;;;25.00;75.10;;;;;;4945584;28;20031;-78
2022/08/08 02:52:29;;;;;;;2.40;0.30;;;24.70;75.90;;;;;;4950908;29;20390;-78
2022/08/08 02:55:23;;;;;;;1.60;0.17;;;23.80;76.30;;;;;;4945778;28;20019;-77
2022/08/08 02:58:09;;;;;;;0.98;0.10;;;22.90;78.20;;;;;;4953140;29;20062;-77
2022/08/08 03:01:15;;;;;;;1.65;0.15;;;23.30;77.00;;;;;;4954148;28;20390;-78
2022/08/08 03:04:16;;;;;;;0.35;0.10;;;23.50;77.60;;;;;;4948549;29;20055;-76
2022/08/08 03:07:19;;;;;;;1.15;0.30;;;24.00;77.30;;;;;;4947264;28;20065;-77
2022/08/08 03:09:56;;;;;;;2.05;0.20;;;24.40;75.60;;;;;;4948874;28;20475;-77
2022/08/08 03:12:53;;;;;;;2.30;0.20;;;24.60;75.60;;;;;;4952891;28;20062;-76
2022/08/08 03:15:57;;;;;;;0.10;0.00;;;24.40;78.00;;;;;;4948963;28;20046;-77
2022/08/08 03:18:37;;;;;;;0.43;0.10;;;24.50;76.60;;;;;;4949903;28;20044;-77
2022/08/08 03:21:04;;;;;;;1.13;0.10;;;23.90;76.40;;;;;;4917367;29;20051;-74
2022/08/08 03:23:32;;;;;;;0.35;0.10;;;23.20;76.70;;;;;;4939601;28;20036;-76
2022/08/08 03:26:00;;;;;;;0.80;0.30;;;23.20;79.20;;;;;;4940314;29;20102;-78
2022/08/08 03:28:53;;;;;;;0.20;0.10;;;23.60;77.80;;;;;;4942290;29;20027;-76
2022/08/08 03:34:14;;;;;;;0.30;0.10;;;22.80;79.40;;;;;;4942184;29;20058;-76
2022/08/08 03:36:43;;;;;;;0.40;0.10;;;22.70;78.00;;;;;;4952532;29;20054;-78
2022/08/08 03:39:14;;;;;;;0.43;0.30;;;22.40;77.40;;;;;;4938398;28;20035;-77
2022/08/08 03:41:43;;;;;;;0.70;0.20;;;22.20;78.10;;;;;;4943575;29;20034;-77
2022/08/08 03:44:10;;;;;;;0.52;0.10;;;22.40;77.70;;;;;;4941638;28;20034;-77
2022/08/08 03:46:45;;;;;;;0.10;0.10;;;22.20;77.20;;;;;;4920757;29;20367;-77
2022/08/08 03:49:25;;;;;;;0.45;0.10;;;21.70;79.10;;;;;;4945635;29;20486;-77
2022/08/08 03:51:56;;;;;;;0.25;0.10;;;21.00;79.90;;;;;;4947133;29;20035;-76
2022/08/08 03:54:25;;;;;;;1.20;0.30;;;20.90;80.90;;;;;;4945720;28;20035;-75
2022/08/08 03:56:53;;;;;;;0.43;0.10;;;20.80;80.80;;;;;;4947678;28;20123;-76
2022/08/08 03:59:20;;;;;;;0.65;0.10;;;20.60;81.40;;;;;;4940132;28;20059;-76
2022/08/08 04:01:48;;;;;;;0.77;0.10;;;20.50;81.20;;;;;;4946442;29;20328;-77
2022/08/08 04:04:19;;;;;;;0.10;0.00;;;20.50;81.60;;;;;;4944226;29;20453;-76
2022/08/08 04:06:57;;;;;;;2.83;0.20;;;20.60;81.30;;;;;;4949434;29;20122;-77
2022/08/08 04:09:24;;;;;;;1.23;0.20;;;20.60;81.10;;;;;;4940507;29;20097;-78
2022/08/08 04:11:52;;;;;;;2.25;0.10;;;20.50;80.00;;;;;;4951356;28;20063;-76
2022/08/08 04:14:19;;;;;;;0.00;0.00;;;20.60;79.20;;;;;;4947567;28;20042;-75
2022/08/08 04:16:46;;;;;;;1.55;0.10;;;20.40;78.60;;;;;;4944694;28;20054;-77
2022/08/08 04:19:14;;;;;;;1.08;0.10;;;20.20;79.10;;;;;;4940566;29;20023;-76
2022/08/08 04:21:41;;;;;;;0.10;0.10;;;19.90;80.70;;;;;;4941992;29;20042;-76
2022/08/08 04:24:08;;;;;;;1.13;0.10;;;19.70;81.30;;;;;;4941254;28;20039;-76
2022/08/08 04:26:36;;;;;;;0.73;0.10;;;19.50;81.10;;;;;;4940826;29;20788;-76
2022/08/08 04:29:04;;;;;;;2.35;0.10;;;19.20;82.50;;;;;;4940793;29;20083;-75
2022/08/08 04:31:31;;;;;;;0.32;0.10;;;19.00;82.50;;;;;;4942736;29;20026;-75
2022/08/08 04:33:58;;;;;;;0.30;0.10;;;18.80;82.90;;;;;;4942029;29;20030;-75
2022/08/08 04:36:26;;;;;;;0.20;0.03;;;18.90;83.30;;;;;;4942626;29;20062;-76
2022/08/08 04:38:53;;;;;;;2.90;0.20;;;18.90;82.10;;;;;;4939914;29;20030;-76
2022/08/08 04:41:21;;;;;;;0.82;0.10;;;18.80;81.60;;;;;;4943493;29;20036;-76
2022/08/08 04:43:48;;;;;;;0.10;0.00;;;18.80;82.00;;;;;;4942624;29;20030;-76
2022/08/08 04:46:15;;;;;;;0.82;0.10;;;18.90;81.50;;;;;;4942675;29;20037;-76
2022/08/08 04:48:43;;;;;;;0.30;0.05;;;18.90;82.20;;;;;;4939625;29;20031;-76
2022/08/08 04:51:10;;;;;;;0.25;0.10;;;18.80;81.60;;;;;;4944923;29;20032;-76
2022/08/08 04:53:38;;;;;;;1.55;0.17;;;18.70;82.20;;;;;;4945898;29;20039;-76
2022/08/08 04:56:06;;;;;;;1.77;0.10;;;18.80;82.20;;;;;;4949922;28;20023;-75
2022/08/08 04:58:33;;;;;;;1.83;0.10;;;18.70;81.40;;;;;;4941903;29;20081;-76
2022/08/08 05:01:01;;;;;;;0.50;0.50;;;18.60;79.80;;;;;;4942628;29;20307;-76
2022/08/08 05:03:28;;;;;;;0.00;0.00;;;18.50;81.30;;;;;;4942186;29;20335;-74
2022/08/08 05:05:55;;;;;;;0.80;0.10;;;18.40;82.20;;;;;;4944625;28;21620;-76
2022/08/08 05:08:25;;;;;;;4.60;0.20;;;18.40;81.50;;;;;;4942706;29;20050;-77
2022/08/08 05:10:53;;;;;;;0.75;0.10;;;18.40;81.60;;;;;;4948656;28;20126;-78
2022/08/08 05:13:21;;;;;;;1.33;0.10;;;18.40;81.60;;;;;;4943513;29;20031;-77
2022/08/08 05:15:48;;;;;;;0.47;0.10;;;18.40;82.40;;;;;;4942773;28;20031;-78
2022/08/08 05:18:15;;;;;;;0.68;0.10;;;18.40;81.80;;;;;;4943963;29;20078;-78
2022/08/08 05:20:43;;;;;;;1.75;0.10;;;18.40;79.60;;;;;;4942172;29;20070;-78
2022/08/08 05:23:10;;;;;;;0.88;0.00;;;18.30;80.00;;;;;;4938551;28;20110;-78
2022/08/08 05:25:38;;;;;;;0.77;0.00;;;18.30;80.30;;;;;;4942020;29;20023;-78
2022/08/08 05:28:05;;;;;;;1.55;0.08;;;18.30;80.60;;;;;;4941351;29;20027;-78
2022/08/08 05:30:33;;;;;;;0.20;0.10;;;18.40;80.80;;;;;;4942831;29;20506;-78
2022/08/08 05:33:00;;;;;;;0.30;0.10;;;18.50;81.10;;;;;;4942165;29;20050;-78
2022/08/08 05:35:29;;;;;;;2.90;1.30;;;18.50;80.10;;;;;;4933851;29;20055;-77
2022/08/08 05:38:03;;;;;;;2.47;1.63;;;18.50;79.80;;;;;;4936184;29;20039;-78
2022/08/08 05:40:33;;;;;;;0.10;0.10;;;18.60;79.30;;;;;;4943650;29;20038;-77
2022/08/08 05:43:07;;;;;;;0.68;0.10;;;18.70;79.00;;;;;;4948188;28;20039;-78
2022/08/08 05:45:38;;;;;;;0.90;0.10;;;18.70;78.60;;;;;;4952942;29;20553;-78
2022/08/08 05:48:06;;;;;;;2.25;0.20;;;18.60;86.30;;;;;;4950429;29;20027;-78
2022/08/08 05:50:34;;;;;;;2.15;0.30;;;18.30;89.50;;;;;;4952662;28;20452;-78
2022/08/08 05:53:02;;;;;;;1.30;0.50;;;18.30;90.00;;;;;;4949660;28;20027;-77
2022/08/08 05:55:30;;;;;;;0.85;0.20;;;18.20;90.00;;;;;;4952909;29;20110;-78
2022/08/08 05:57:59;;;;;;;0.32;0.10;;;18.10;90.30;;;;;;4948571;28;20051;-77
2022/08/08 06:00:30;;;;;;;1.55;0.40;;;18.20;90.30;;;;;;4948388;29;20031;-78
2022/08/08 06:03:12;;;;;;;2.05;0.15;;;18.00;90.50;;;;;;4943348;28;20047;-77
2022/08/08 06:06:06;;;;;;;0.98;0.40;;;18.00;90.70;;;;;;4951431;29;20083;-79
2022/08/08 06:08:52;;;;;;;1.27;0.28;;;17.80;91.20;;;;;;4948591;29;20024;-78
2022/08/08 06:11:20;;;;;;;3.85;0.30;;;17.60;91.40;;;;;;4937753;29;20035;-79
2022/08/08 06:13:50;;;;;;;5.97;0.40;;;17.40;91.60;;;;;;4944385;29;20475;-78
2022/08/08 06:16:19;;;;;;;2.72;0.40;;;17.30;91.90;;;;;;4943886;29;20038;-79
2022/08/08 06:18:50;;;;;;;1.13;0.25;;;17.10;92.30;;;;;;4946754;28;20046;-81
2022/08/08 06:21:19;;;;;;;1.33;0.20;;;17.00;92.30;;;;;;4947503;28;20031;-79
2022/08/08 06:23:46;;;;;;;1.17;0.20;;;17.00;92.50;;;;;;4941864;28;20069;-80
2022/08/08 06:26:14;;;;;;;1.98;0.38;;;16.90;92.40;;;;;;4954427;28;20420;-78
2022/08/08 06:29:14;;;;;;;3.40;0.30;;;16.70;92.90;;;;;;4952638;28;20532;-79
2022/08/08 06:31:43;;;;;;;2.05;0.85;;;16.50;92.90;;;;;;4912238;29;20438;-79
2022/08/08 06:34:18;;;;;;;1.38;0.35;;;16.30;93.10;;;;;;4940683;28;20039;-74
2022/08/08 06:36:49;;;;;;;0.30;0.13;;;16.20;93.50;;;;;;4941128;28;20035;-76
2022/08/08 06:39:19;;;;;;;1.17;0.20;;;16.10;93.50;;;;;;4955028;29;20126;-77
2022/08/08 06:41:58;;;;;;;1.98;0.30;;;16.10;93.50;;;;;;4956685;29;20027;-77
2022/08/08 06:44:27;;;;;;;0.40;0.20;;;16.00;93.70;;;;;;4944854;28;20382;-81
2022/08/08 06:46:56;;;;;;;4.03;0.30;;;15.90;94.00;;;;;;4945965;29;20039;-79
2022/08/08 06:49:24;;;;;;;1.17;0.20;;;15.80;93.80;;;;;;4944182;29;20027;-80
2022/08/08 06:51:53;;;;;;;1.45;0.40;;;15.70;94.10;;;;;;4945663;29;20058;-79
2022/08/08 06:54:21;;;;;;;2.58;0.35;;;15.60;94.30;;;;;;4943613;29;20090;-80
2022/08/08 06:56:51;;;;;;;1.65;0.30;;;15.60;94.10;;;;;;4944234;29;20130;-78
2022/08/08 06:59:18;;;;;;;3.35;0.40;;;15.40;94.30;;;;;;4950518;28;20126;-78
2022/08/08 07:01:53;;;;;;;1.40;0.35;;;15.40;94.60;;;;;;4948057;28;20618;-79
2022/08/08 07:04:44;;;;;;;2.97;0.60;;;15.30;94.70;;;;;;4944180;29;20118;-78
2022/08/08 07:07:13;;;;;;;0.88;0.30;;;15.20;94.70;;;;;;4942970;29;20046;-77
2022/08/08 07:09:59;;;;;;;1.10;0.40;;;15.20;94.90;;;;;;4943276;29;20035;-80
2022/08/08 07:12:39;;;;;;;2.15;0.40;;;15.10;94.80;;;;;;4942165;29;20043;-79
2022/08/08 07:15:09;;;;;;;9.75;1.45;;;15.00;94.80;;;;;;4944647;28;20023;-79
2022/08/08 07:17:50;;;;;;;2.42;0.40;;;15.00;94.90;;;;;;4945972;28;20071;-81
2022/08/08 07:20:21;;;;;;;1.98;0.50;;;14.90;95.10;;;;;;4942799;29;20034;-80
2022/08/08 07:22:48;;;;;;;1.58;0.40;;;14.80;95.30;;;;;;4952186;29;20038;-83
2022/08/08 07:25:16;;;;;;;1.67;0.20;;;14.80;95.50;;;;;;4945360;28;20027;-82
2022/08/08 07:27:50;;;;;;;2.03;0.25;;;14.70;95.90;;;;;;4948471;28;20031;-82
2022/08/08 07:30:17;;;;;;;3.22;0.20;;;14.70;95.70;;;;;;4942451;28;20027;-80
2022/08/08 07:32:46;;;;;;;0.85;0.35;;;14.70;95.90;;;;;;4938170;28;20034;-83
2022/08/08 07:35:15;;;;;;;1.75;0.60;;;14.70;95.90;;;;;;4941745;28;20047;-82
2022/08/08 07:37:45;;;;;;;2.90;0.30;;;14.60;96.10;;;;;;4941752;28;20505;-80
2022/08/08 07:40:14;;;;;;;3.08;0.95;;;14.60;96.20;;;;;;4943037;29;20038;-80
2022/08/08 07:42:42;;;;;;;2.92;0.40;;;14.60;96.40;;;;;;4940260;29;20035;-81
2022/08/08 07:45:10;;;;;;;4.25;0.63;;;14.50;96.50;;;;;;4945107;29;20023;-81
2022/08/08 07:47:37;;;;;;;1.95;0.43;;;14.50;96.70;;;;;;4944996;29;20155;-81
2022/08/08 07:50:05;;;;;;;3.80;0.98;;;14.50;96.80;;;;;;4941420;29;20064;-82
2022/08/08 07:52:33;;;;;;;1.77;0.80;;;14.50;96.80;;;;;;4942347;29;20367;-85
2022/08/08 07:55:30;;;;;;;1.63;0.57;;;14.50;97.10;;;;;;4942792;29;20475;-80
2022/08/08 07:58:28;;;;;;;2.55;1.17;;;14.50;96.80;;;;;;4941064;29;20636;-79
2022/08/08 08:01:10;;;;;;;1.90;0.85;;;14.40;97.00;;;;;;4938584;29;20106;-81
2022/08/08 08:03:46;;;;;;;5.50;1.50;;;14.40;97.00;;;;;;4941725;29;20505;-81
2022/08/08 08:06:15;;;;;;;3.03;0.90;;;14.30;97.20;;;;;;4942319;29;20050;-80
2022/08/08 08:08:45;;;;;;;4.25;1.00;;;14.20;97.40;;;;;;4941102;28;20027;-79
2022/08/08 08:11:15;;;;;;;3.67;0.60;;;14.10;97.30;;;;;;4951159;29;20110;-80
2022/08/08 08:14:02;;;;;;;2.63;0.88;;;14.00;97.40;;;;;;4952751;29;20046;-81
2022/08/08 08:16:33;;;;;;;2.67;0.65;;;13.90;97.60;;;;;;4952368;29;20083;-79
2022/08/08 08:19:09;;;;;;;3.47;0.60;;;13.80;97.60;;;;;;4945343;28;20043;-79
2022/08/08 08:21:40;;;;;;;;;;;13.80;97.80;;;;;;4951937;29;20491;-80
2022/08/08 08:24:08;;;;;;;3.13;0.82;;;13.70;97.80;;;;;;4950032;29;20373;-81
2022/08/08 08:26:36;;;;;;;2.58;0.43;;;13.70;97.80;;;;;;4954287;29;20039;-81
2022/08/08 08:29:04;;;;;;;4.20;0.65;;;13.70;97.90;;;;;;4925301;29;20398;-80
2022/08/08 08:31:32;;;;;;;3.22;1.80;;;13.70;97.80;;;;;;4948884;29;20067;-81
2022/08/08 08:33:59;;;;;;;0.93;0.40;;;13.70;97.80;;;;;;4954794;28;20051;-80
2022/08/08 08:36:27;;;;;;;2.83;0.30;;;13.70;98.10;;;;;;4968840;28;20023;-79
2022/08/08 08:38:55;;;;;;;5.05;1.15;;;13.70;98.00;;;;;;4951134;28;20546;-80
2022/08/08 08:41:23;;;;;;;1.95;0.40;;;13.60;98.00;;;;;;4937345;29;20761;-79
2022/08/08 08:43:51;;;;;;;1.45;0.40;;;13.60;98.00;;;;;;4944191;28;20032;-80
2022/08/08 08:46:20;;;;;;;3.22;0.50;;;13.60;98.10;;;;;;4934424;29;20099;-80
2022/08/08 08:48:48;;;;;;;2.45;0.63;;;13.60;98.20;;;;;;4947293;29;20035;-79
2022/08/08 08:51:28;;;;;;;3.03;0.85;;;13.60;98.20;;;;;;5077275;27;20441;-81
2022/08/08 08:53:56;;;;;;;3.00;1.58;;;13.50;98.30;;;;;;5067242;28;20059;-80
2022/08/08 08:56:24;;;;;;;7.05;1.60;;;13.40;98.50;;;;;;5065767;28;20087;-78
2022/08/08 08:58:55;;;;;;;5.32;2.80;;;13.30;98.60;;;;;;5063555;28;20798;-81
2022/08/08 09:01:26;;;;;;;2.38;1.70;;;13.20;98.80;;;;;;5068479;28;20024;-79
2022/08/08 09:04:00;;;;;;;4.45;2.55;;;13.10;98.90;;;;;;5062361;28;20025;-80
2022/08/08 09:06:32;;;;;;;2.65;1.27;;;13.00;99.10;;;;;;5060167;28;20031;-81
2022/08/08 09:09:07;;;;;;;2.13;0.80;;;13.00;99.20;;;;;;5067894;28;20079;-80
2022/08/08 09:11:36;;;;;;;4.30;1.10;;;12.90;99.40;;;;;;5048980;28;20429;-80
2022/08/08 09:14:04;;;;;;;2.47;0.80;;;12.80;99.60;;;;;;5060386;28;20033;-82
2022/08/08 09:16:32;;;;;;;5.15;1.10;;;12.70;99.60;;;;;;5066222;28;20562;-80
2022/08/08 09:18:59;;;;;;;1.85;0.80;;;12.60;99.80;;;;;;5066630;28;20127;-82
2022/08/08 09:21:28;;;;;;;2.95;0.65;;;12.60;99.90;;;;;;5067068;28;20037;-80
2022/08/08 09:23:56;;;;;;;6.15;1.52;;;12.60;99.90;;;;;;5063571;28;20105;-80
2022/08/08 09:26:49;;;;;;;3.97;1.42;;;12.50;99.90;;;;;;5060038;28;20029;-80
2022/08/08 09:29:24;;;;;;;3.75;1.13;;;12.50;99.90;;;;;;5053546;28;20076;-79
2022/08/08 09:32:00;;;;;;;4.93;1.67;;;12.50;99.90;;;;;;5053419;28;20043;-78
2022/08/08 09:34:33;;;;;;;4.82;1.13;;;12.40;99.90;;;;;;5062500;28;20121;-81
2022/08/08 09:37:09;;;;;;;3.22;1.90;;;12.30;99.90;;;;;;5071824;28;20028;-81
2022/08/08 09:39:56;;;;;;;2.65;1.83;;;12.30;99.90;;;;;;5066871;28;20036;-80
2022/08/08 09:42:29;;;;;;;4.25;1.52;;;12.30;99.90;;;;;;5083722;28;20027;-80
2022/08/08 09:45:03;;;;;;;6.53;1.40;;;12.20;99.90;;;;;;5062518;28;20035;-81
2022/08/08 09:47:34;;;;;;;1.67;1.02;;;12.20;99.90;;;;;;5086006;28;20039;-80
2022/08/08 09:50:10;;;;;;;2.70;0.95;;;12.10;99.90;;;;;;5057748;28;20051;-81
2022/08/08 09:52:45;;;;;;;3.60;1.35;;;12.10;99.90;;;;;;5066085;28;20116;-80
2022/08/08 09:55:12;;;;;;;3.08;1.73;;;12.00;99.90;;;;;;5064247;28;20028;-80
2022/08/08 09:57:41;;;;;;;7.28;1.20;;;11.90;99.90;;;;;;5064767;28;20016;-80
2022/08/08 10:00:10;;;;;;;6.35;1.55;;;11.90;99.90;;;;;;5066617;28;20088;-80
2022/08/08 10:02:46;;;;;;;2.78;1.23;;;11.90;99.90;;;;;;5053063;28;20029;-80
2022/08/08 10:05:19;;;;;;;4.45;1.63;;;11.80;99.90;;;;;;5047691;28;20032;-81
2022/08/08 10:07:52;;;;;;;3.25;1.50;;;11.80;99.90;;;;;;5052286;28;20049;-80
2022/08/08 10:10:27;;;;;;;3.10;1.30;;;11.70;99.90;;;;;;5045219;28;20101;-79
2022/08/08 10:12:55;;;;;;;3.80;1.48;;;11.70;99.90;;;;;;5062875;28;20037;-79
2022/08/08 10:15:27;;;;;;;2.92;1.50;;;11.70;99.90;;;;;;5060679;28;20031;-79
2022/08/08 10:17:56;;;;;;;4.05;0.82;;;11.60;99.90;;;;;;5050593;28;20024;-80
2022/08/08 10:20:25;;;;;;;1.95;0.70;;;11.60;99.90;;;;;;5049222;28;20127;-79
2022/08/08 10:23:00;;;;;;;5.40;1.20;;;11.60;99.90;;;;;;5050343;28;20044;-79
2022/08/08 10:25:28;;;;;;;2.22;1.08;;;11.50;99.90;;;;;;5052127;28;20041;-79
2022/08/08 10:27:56;;;;;;;1.38;0.60;;;11.50;99.90;;;;;;5050173;28;20029;-79
2022/08/08 10:30:25;;;;;;;4.55;2.03;;;11.50;99.90;;;;;;5051601;28;20048;-79
2022/08/08 10:32:58;;;;;;;5.47;1.55;;;11.50;99.90;;;;;;5050682;28;20489;-78
2022/08/08 10:35:31;;;;;;;0.65;0.60;;;11.60;99.90;;;;;;5050899;28;20043;-80
2022/08/08 10:38:08;;;;;;;3.50;2.17;;;11.60;99.90;;;;;;5052011;28;20912;-80
2022/08/08 10:40:38;;;;;;;3.05;1.50;;;11.60;99.90;;;;;;5050110;28;20025;-79
2022/08/08 10:43:07;;;;;;;7.68;3.90;;;11.70;99.90;;;;;;5052549;28;20028;-80
2022/08/08 10:45:44;;;;;;;2.92;1.30;;;11.70;99.90;;;;;;5052977;28;20032;-80
2022/08/08 10:48:12;;;;;;;7.10;2.72;;;11.70;99.90;;;;;;5053765;28;20107;-80
2022/08/08 10:50:40;;;;;;;6.93;1.60;;;11.80;99.90;;;;;;5051075;28;20377;-80
2022/08/08 10:53:15;;;;;;;5.82;1.75;;;11.70;99.90;;;;;;5051225;28;20040;-78
2022/08/08 10:55:42;;;;;;;4.57;2.25;;;11.80;99.90;;;;;;5051272;28;20442;-80
2022/08/08 10:58:11;;;;;;;5.13;2.05;;;11.80;99.90;;;;;;5055397;28;20056;-80
2022/08/08 11:00:45;;;;;;;2.67;1.80;;;11.80;99.90;;;;;;5056543;28;20029;-80
2022/08/08 11:03:17;;;;;;;4.90;1.23;;;11.80;99.90;;;;;;5046211;28;20041;-80
2022/08/08 11:05:53;;;;;;;3.88;1.42;;;11.80;99.90;;;;;;5036316;28;20037;-79
2022/08/08 11:08:32;;;;;;;1.73;1.10;;;11.80;99.90;;;;;;5049141;28;20563;-80
2022/08/08 11:11:07;;;;;;;5.10;1.38;;;11.80;99.90;;;;;;5050811;28;20206;-80
2022/08/08 11:13:41;;;;;;;4.13;1.80;;;11.90;99.90;;;;;;5058366;28;20108;-79
2022/08/08 11:16:17;;;;;;;6.10;1.95;;;11.80;99.90;;;;;;5048587;28;20032;-80
2022/08/08 11:18:47;;;;;;;2.88;1.30;;;11.80;99.90;;;;;;5052268;28;20055;-81
2022/08/08 11:21:17;;;;;;;3.30;1.08;;;11.80;99.90;;;;;;5050191;28;20372;-81
2022/08/08 11:23:45;;;;;;;2.22;1.27;;;11.70;99.90;;;;;;5049497;28;20131;-79
2022/08/08 11:26:17;;;;;;;5.55;0.95;;;11.70;99.90;;;;;;5051742;28;20090;-78
2022/08/08 11:28:46;;;;;;;3.63;1.65;;;11.60;99.90;;;;;;5054806;28;20025;-77
2022/08/08 11:31:19;;;;;;;1.13;0.80;;;11.60;99.90;;;;;;5058922;28;20040;-79
2022/08/08 11:33:51;;;;;;;2.55;0.90;;;11.50;99.90;;;;;;5053130;28;20029;-80
2022/08/08 11:36:19;;;;;;;4.05;1.27;;;11.50;99.90;;;;;;5047554;28;20052;-79
2022/08/08 11:38:47;;;;;;;3.13;1.42;;;11.40;99.90;;;;;;5049100;28;20039;-78
2022/08/08 11:41:17;;;;;;;5.10;1.67;;;11.30;99.90;;;;;;5049567;28;20551;-79
2022/08/08 11:43:46;;;;;;;2.75;1.52;;;11.30;99.90;;;;;;5050378;28;20095;-79
2022/08/08 11:46:14;;;;;;;4.97;2.33;;;11.20;99.90;;;;;;5051134;28;20051;-80
2022/08/08 11:48:43;;;;;;;4.85;1.67;;;11.30;99.90;;;;;;5049886;28;20040;-80
2022/08/08 11:51:11;;;;;;;5.18;2.05;;;11.30;99.90;;;;;;5049277;28;20060;-80
2022/08/08 11:53:39;;;;;;;3.58;1.48;;;11.30;99.90;;;;;;5049065;28;20047;-79
2022/08/08 11:56:17;;;;;;;3.65;1.73;;;11.40;99.90;;;;;;5050756;28;20116;-79
2022/08/08 11:58:44;;;;;;;3.25;1.23;;;11.40;99.90;;;;;;5048954;28;20040;-79
2022/08/08 12:01:12;;;;;;;4.90;2.25;;;11.40;99.90;;;;;;5049465;28;20075;-79
2022/08/08 12:03:51;;;;;;;8.10;2.45;;;11.30;99.90;;;;;;5050563;28;20039;-79
2022/08/08 12:06:21;;;;;;;48.33;13.00;;;11.30;99.90;;;;;;5049544;28;20636;-78
2022/08/08 12:08:49;;;;;;;33.53;9.75;;;11.30;99.90;;;;;;5049002;28;20071;-79
2022/08/08 12:11:18;;;;;;;22.95;6.18;;;11.20;99.90;;;;;;5049680;28;20067;-79
2022/08/08 12:13:48;;;;;;;32.33;7.70;;;11.10;99.90;;;;;;5049057;28;20468;-79
2022/08/08 12:16:20;;;;;;;36.33;10.30;;;11.10;99.90;;;;;;5049814;28;20059;-78
2022/08/08 12:18:54;;;;;;;25.08;6.38;;;11.10;99.90;;;;;;5050201;28;20108;-78
2022/08/08 12:21:31;;;;;;;33.17;8.98;;;11.00;99.90;;;;;;5044981;28;20349;-79
2022/08/08 12:24:16;;;;;;;21.52;5.45;;;11.00;99.90;;;;;;5034486;28;20039;-79
2022/08/08 12:26:44;;;;;;;3.75;1.27;;;10.90;99.90;;;;;;5036630;28;20049;-79
2022/08/08 12:29:37;;;;;;;7.32;2.00;;;10.90;99.90;;;;;;5044333;28;20356;-79
2022/08/08 12:32:05;;;;;;;6.90;0.88;;;10.80;99.90;;;;;;5049127;28;20041;-79
2022/08/08 12:34:40;;;;;;;4.22;0.60;;;10.80;99.90;;;;;;5048792;28;20041;-78
2022/08/08 12:37:11;;;;;;;4.63;1.90;;;10.70;99.90;;;;;;5049233;28;21916;-79
2022/08/08 12:39:39;;;;;;;5.20;1.63;;;10.60;99.90;;;;;;5043655;28;20070;-80
2022/08/08 12:42:06;;;;;;;3.80;1.70;;;10.60;99.90;;;;;;5047357;28;20032;-79
2022/08/08 12:44:35;;;;;;;3.40;1.55;;;10.50;99.90;;;;;;5048828;28;20541;-81
2022/08/08 12:47:04;;;;;;;2.67;0.70;;;10.50;99.90;;;;;;5050708;28;20029;-80
2022/08/08 12:49:34;;;;;;;3.72;1.30;;;10.40;99.90;;;;;;5053246;28;20041;-79
2022/08/08 12:52:03;;;;;;;3.25;0.98;;;10.40;99.90;;;;;;5049613;28;20104;-79
2022/08/08 12:54:33;;;;;;;3.13;0.90;;;10.40;99.90;;;;;;5049370;28;20025;-79
2022/08/08 12:57:11;;;;;;;1.52;0.88;;;10.30;99.90;;;;;;5050050;28;20498;-79
2022/08/08 12:59:51;;;;;;;1.63;0.70;;;10.30;99.90;;;;;;5047217;28;20048;-80
2022/08/08 13:02:34;;;;;;;2.00;0.70;;;10.20;99.90;;;;;;5048982;28;20033;-79
2022/08/08 13:05:04;;;;;;;2.38;0.60;;;10.20;99.90;;;;;;5049007;28;20052;-79
2022/08/08 13:07:40;;;;;;;2.40;0.70;;;10.20;99.90;;;;;;5050344;28;20025;-79
2022/08/08 13:10:14;;;;;;;4.20;0.80;;;10.20;99.90;;;;;;5048694;28;20491;-79
2022/08/08 13:12:46;;;;;;;2.97;0.50;;;10.20;99.90;;;;;;5046381;28;20391;-79
2022/08/08 13:15:19;;;;;;;1.95;0.70;;;10.20;99.90;;;;;;5049726;28;20017;-80
2022/08/08 13:17:47;;;;;;;1.13;0.57;;;10.20;99.90;;;;;;5049644;28;20020;-80
2022/08/08 13:20:16;;;;;;;1.88;0.60;;;10.20;99.90;;;;;;5030106;28;20563;-80
2022/08/08 13:22:45;;;;;;;5.85;0.70;;;10.20;99.90;;;;;;5047352;28;20033;-78
2022/08/08 13:25:20;;;;;;;2.35;0.70;;;10.10;99.90;;;;;;5048467;28;20059;-79
2022/08/08 13:27:55;;;;;;;1.50;0.30;;;10.10;99.90;;;;;;5049031;28;20021;-79
2022/08/08 13:30:27;;;;;;;2.00;0.90;;;10.10;99.90;;;;;;5030113;28;20037;-79
2022/08/08 13:33:00;;;;;;;8.13;3.40;;;10.20;99.90;;;;;;5043708;28;20040;-79
2022/08/08 13:35:28;;;;;;;6.18;3.60;;;10.20;99.90;;;;;;5050324;28;20025;-79
2022/08/08 13:38:04;;;;;;;3.85;2.05;;;10.20;99.90;;;;;;5047005;28;20198;-79